sensor_id;sensor_type;location;lat;lon;timestamp;P1;durP1;ratioP1;P2;durP2;ratioP2
60714;SDS011;46564;53.096;8.246;2023-02-21T00:00:44;8.98;;;3.88;;
60714;SDS011;46564;53.096;8.246;2023-02-21T00:18:35;5.03;;;3.13;;
60714;SDS011;46564;53.096;8.246;2023-02-21T00:25:09;7.68;;;3.35;;
60714;SDS011;46564;53.096;8.246;2023-02-21T00:31:18;7.05;;;3.28;;
60714;SDS011;46564;53.096;8.246;2023-02-21T00:36:38;7.07;;;3.38;;
60714;SDS011;46564;53.096;8.246;2023-02-21T00:41:58;6.95;;;3.28;;
60714;SDS011;46564;53.096;8.246;2023-02-21T00:47:18;11.98;;;2.95;;
60714;SDS011;46564;53.096;8.246;2023-02-21T00:52:39;10.82;;;3.58;;
60714;SDS011;46564;53.096;8.246;2023-02-21T00:57:59;14.55;;;3.38;;
60714;SDS011;46564;53.096;8.246;2023-02-21T01:03:19;6.07;;;3.20;;
60714;SDS011;46564;53.096;8.246;2023-02-21T01:08:40;7.50;;;3.38;;
60714;SDS011;46564;53.096;8.246;2023-02-21T01:14:05;6.25;;;3.28;;
60714;SDS011;46564;53.096;8.246;2023-02-21T01:19:28;6.05;;;2.80;;
60714;SDS011;46564;53.096;8.246;2023-02-21T01:30:09;7.05;;;3.47;;
60714;SDS011;46564;53.096;8.246;2023-02-21T01:35:29;7.18;;;3.63;;
60714;SDS011;46564;53.096;8.246;2023-02-21T01:40:49;8.68;;;3.45;;
60714;SDS011;46564;53.096;8.246;2023-02-21T01:46:11;6.68;;;2.95;;
60714;SDS011;46564;53.096;8.246;2023-02-21T01:51:34;7.28;;;3.97;;
60714;SDS011;46564;53.096;8.246;2023-02-21T01:56:58;9.65;;;3.78;;
60714;SDS011;46564;53.096;8.246;2023-02-21T02:02:23;8.57;;;2.85;;
60714;SDS011;46564;53.096;8.246;2023-02-21T02:07:48;6.22;;;3.55;;
60714;SDS011;46564;53.096;8.246;2023-02-21T02:18:35;8.25;;;3.42;;
60714;SDS011;46564;53.096;8.246;2023-02-21T02:34:39;6.25;;;2.63;;
60714;SDS011;46564;53.096;8.246;2023-02-21T02:40:01;10.88;;;3.17;;
60714;SDS011;46564;53.096;8.246;2023-02-21T02:50:15;7.15;;;2.72;;
60714;SDS011;46564;53.096;8.246;2023-02-21T02:55:28;5.85;;;2.05;;
60714;SDS011;46564;53.096;8.246;2023-02-21T03:00:31;6.30;;;2.92;;
60714;SDS011;46564;53.096;8.246;2023-02-21T03:05:42;7.47;;;3.90;;
60714;SDS011;46564;53.096;8.246;2023-02-21T03:10:51;14.48;;;4.80;;
60714;SDS011;46564;53.096;8.246;2023-02-21T03:21:29;6.85;;;3.25;;
60714;SDS011;46564;53.096;8.246;2023-02-21T03:26:36;8.52;;;3.38;;
60714;SDS011;46564;53.096;8.246;2023-02-21T03:32:09;7.63;;;3.13;;
60714;SDS011;46564;53.096;8.246;2023-02-21T03:37:58;6.30;;;3.22;;
60714;SDS011;46564;53.096;8.246;2023-02-21T03:42:46;6.17;;;3.47;;
60714;SDS011;46564;53.096;8.246;2023-02-21T03:47:50;10.20;;;3.92;;
60714;SDS011;46564;53.096;8.246;2023-02-21T03:52:52;15.02;;;3.75;;
60714;SDS011;46564;53.096;8.246;2023-02-21T03:57:55;7.63;;;3.67;;
60714;SDS011;46564;53.096;8.246;2023-02-21T04:02:58;8.50;;;3.83;;
60714;SDS011;46564;53.096;8.246;2023-02-21T04:08:12;7.50;;;3.55;;
60714;SDS011;46564;53.096;8.246;2023-02-21T04:13:14;11.05;;;3.38;;
60714;SDS011;46564;53.096;8.246;2023-02-21T04:18:19;7.65;;;3.17;;
60714;SDS011;46564;53.096;8.246;2023-02-21T04:23:22;5.70;;;2.83;;
60714;SDS011;46564;53.096;8.246;2023-02-21T04:28:24;11.55;;;3.22;;
60714;SDS011;46564;53.096;8.246;2023-02-21T04:33:25;7.10;;;2.58;;
60714;SDS011;46564;53.096;8.246;2023-02-21T04:38:27;11.65;;;3.25;;
60714;SDS011;46564;53.096;8.246;2023-02-21T04:43:29;8.50;;;3.47;;
60714;SDS011;46564;53.096;8.246;2023-02-21T04:48:31;7.95;;;3.42;;
60714;SDS011;46564;53.096;8.246;2023-02-21T04:53:32;9.88;;;3.55;;
60714;SDS011;46564;53.096;8.246;2023-02-21T04:58:34;8.95;;;4.15;;
60714;SDS011;46564;53.096;8.246;2023-02-21T05:03:46;11.00;;;2.97;;
60714;SDS011;46564;53.096;8.246;2023-02-21T05:08:48;10.98;;;3.28;;
60714;SDS011;46564;53.096;8.246;2023-02-21T05:13:50;17.27;;;3.78;;
60714;SDS011;46564;53.096;8.246;2023-02-21T05:18:52;8.85;;;4.28;;
60714;SDS011;46564;53.096;8.246;2023-02-21T05:23:54;7.82;;;3.90;;
60714;SDS011;46564;53.096;8.246;2023-02-21T05:28:56;12.77;;;4.13;;
60714;SDS011;46564;53.096;8.246;2023-02-21T05:33:57;7.97;;;3.70;;
60714;SDS011;46564;53.096;8.246;2023-02-21T05:38:59;6.53;;;3.33;;
60714;SDS011;46564;53.096;8.246;2023-02-21T05:44:01;11.30;;;3.97;;
60714;SDS011;46564;53.096;8.246;2023-02-21T05:49:04;9.20;;;3.33;;
60714;SDS011;46564;53.096;8.246;2023-02-21T05:54:12;8.35;;;3.20;;
60714;SDS011;46564;53.096;8.246;2023-02-21T05:59:17;6.45;;;3.25;;
60714;SDS011;46564;53.096;8.246;2023-02-21T06:04:19;6.38;;;2.38;;
60714;SDS011;46564;53.096;8.246;2023-02-21T06:09:21;10.20;;;4.10;;
60714;SDS011;46564;53.096;8.246;2023-02-21T06:14:23;4.95;;;2.33;;
60714;SDS011;46564;53.096;8.246;2023-02-21T06:19:27;6.60;;;3.33;;
60714;SDS011;46564;53.096;8.246;2023-02-21T06:24:28;9.13;;;3.20;;
60714;SDS011;46564;53.096;8.246;2023-02-21T06:29:30;5.00;;;2.78;;
60714;SDS011;46564;53.096;8.246;2023-02-21T06:34:32;6.13;;;3.35;;
60714;SDS011;46564;53.096;8.246;2023-02-21T06:39:34;14.52;;;3.72;;
60714;SDS011;46564;53.096;8.246;2023-02-21T06:44:35;5.20;;;2.50;;
60714;SDS011;46564;53.096;8.246;2023-02-21T06:49:37;5.28;;;2.63;;
60714;SDS011;46564;53.096;8.246;2023-02-21T06:54:38;5.78;;;2.85;;
60714;SDS011;46564;53.096;8.246;2023-02-21T06:59:40;4.93;;;2.50;;
60714;SDS011;46564;53.096;8.246;2023-02-21T07:04:42;8.90;;;3.65;;
60714;SDS011;46564;53.096;8.246;2023-02-21T07:09:43;7.75;;;3.08;;
60714;SDS011;46564;53.096;8.246;2023-02-21T07:14:45;6.35;;;3.15;;
60714;SDS011;46564;53.096;8.246;2023-02-21T07:19:46;7.03;;;3.28;;
60714;SDS011;46564;53.096;8.246;2023-02-21T07:24:48;6.35;;;2.70;;
60714;SDS011;46564;53.096;8.246;2023-02-21T07:29:49;5.75;;;2.58;;
60714;SDS011;46564;53.096;8.246;2023-02-21T07:34:51;8.90;;;3.92;;
60714;SDS011;46564;53.096;8.246;2023-02-21T07:39:53;7.90;;;3.40;;
60714;SDS011;46564;53.096;8.246;2023-02-21T07:44:55;6.60;;;3.05;;
60714;SDS011;46564;53.096;8.246;2023-02-21T07:49:57;7.47;;;3.25;;
60714;SDS011;46564;53.096;8.246;2023-02-21T07:54:59;8.30;;;4.10;;
60714;SDS011;46564;53.096;8.246;2023-02-21T08:00:00;6.22;;;3.33;;
60714;SDS011;46564;53.096;8.246;2023-02-21T08:05:13;7.20;;;3.00;;
60714;SDS011;46564;53.096;8.246;2023-02-21T08:10:20;6.78;;;3.35;;
60714;SDS011;46564;53.096;8.246;2023-02-21T08:15:23;10.50;;;3.30;;
60714;SDS011;46564;53.096;8.246;2023-02-21T08:20:25;5.38;;;3.17;;
60714;SDS011;46564;53.096;8.246;2023-02-21T08:25:26;4.20;;;2.15;;
60714;SDS011;46564;53.096;8.246;2023-02-21T08:30:28;9.30;;;4.03;;
60714;SDS011;46564;53.096;8.246;2023-02-21T08:35:30;7.25;;;3.72;;
60714;SDS011;46564;53.096;8.246;2023-02-21T08:40:31;16.08;;;3.97;;
60714;SDS011;46564;53.096;8.246;2023-02-21T08:45:33;7.18;;;2.88;;
60714;SDS011;46564;53.096;8.246;2023-02-21T08:50:35;7.82;;;3.30;;
60714;SDS011;46564;53.096;8.246;2023-02-21T08:55:36;10.05;;;3.95;;
60714;SDS011;46564;53.096;8.246;2023-02-21T09:00:38;8.25;;;3.78;;
60714;SDS011;46564;53.096;8.246;2023-02-21T09:05:39;11.52;;;3.47;;
60714;SDS011;46564;53.096;8.246;2023-02-21T09:10:41;9.48;;;3.67;;
60714;SDS011;46564;53.096;8.246;2023-02-21T09:15:47;9.05;;;3.38;;
60714;SDS011;46564;53.096;8.246;2023-02-21T09:20:49;8.00;;;3.63;;
60714;SDS011;46564;53.096;8.246;2023-02-21T09:25:54;12.27;;;4.35;;
60714;SDS011;46564;53.096;8.246;2023-02-21T09:30:55;12.38;;;4.00;;
60714;SDS011;46564;53.096;8.246;2023-02-21T09:35:57;6.88;;;2.70;;
60714;SDS011;46564;53.096;8.246;2023-02-21T09:40:59;12.65;;;3.58;;
60714;SDS011;46564;53.096;8.246;2023-02-21T09:46:05;12.88;;;4.13;;
60714;SDS011;46564;53.096;8.246;2023-02-21T09:56:20;10.95;;;3.53;;
60714;SDS011;46564;53.096;8.246;2023-02-21T10:01:33;7.95;;;3.03;;
60714;SDS011;46564;53.096;8.246;2023-02-21T10:06:58;10.68;;;3.80;;
60714;SDS011;46564;53.096;8.246;2023-02-21T10:12:09;5.75;;;3.25;;
60714;SDS011;46564;53.096;8.246;2023-02-21T10:23:03;9.45;;;3.70;;
60714;SDS011;46564;53.096;8.246;2023-02-21T10:28:18;13.98;;;4.38;;
60714;SDS011;46564;53.096;8.246;2023-02-21T10:33:22;13.90;;;4.63;;
60714;SDS011;46564;53.096;8.246;2023-02-21T10:38:24;10.40;;;4.15;;
60714;SDS011;46564;53.096;8.246;2023-02-21T10:43:30;9.88;;;4.22;;
60714;SDS011;46564;53.096;8.246;2023-02-21T10:48:37;9.35;;;4.20;;
60714;SDS011;46564;53.096;8.246;2023-02-21T10:53:42;10.05;;;5.03;;
60714;SDS011;46564;53.096;8.246;2023-02-21T10:58:48;11.38;;;4.38;;
60714;SDS011;46564;53.096;8.246;2023-02-21T11:03:58;7.50;;;2.78;;
60714;SDS011;46564;53.096;8.246;2023-02-21T11:09:02;9.82;;;3.65;;
60714;SDS011;46564;53.096;8.246;2023-02-21T11:14:29;6.97;;;3.28;;
60714;SDS011;46564;53.096;8.246;2023-02-21T11:25:02;8.70;;;3.40;;
60714;SDS011;46564;53.096;8.246;2023-02-21T11:30:15;9.38;;;4.47;;
60714;SDS011;46564;53.096;8.246;2023-02-21T11:35:31;11.75;;;4.57;;
60714;SDS011;46564;53.096;8.246;2023-02-21T11:40:43;12.35;;;5.00;;
60714;SDS011;46564;53.096;8.246;2023-02-21T11:45:56;13.90;;;5.40;;
60714;SDS011;46564;53.096;8.246;2023-02-21T11:51:02;8.38;;;4.13;;
60714;SDS011;46564;53.096;8.246;2023-02-21T11:56:16;10.65;;;4.10;;
60714;SDS011;46564;53.096;8.246;2023-02-21T12:01:27;12.98;;;5.10;;
60714;SDS011;46564;53.096;8.246;2023-02-21T12:06:47;11.30;;;4.32;;
60714;SDS011;46564;53.096;8.246;2023-02-21T12:12:01;12.43;;;4.32;;
60714;SDS011;46564;53.096;8.246;2023-02-21T12:44:23;8.32;;;3.97;;
60714;SDS011;46564;53.096;8.246;2023-02-21T12:49:44;11.13;;;4.63;;
60714;SDS011;46564;53.096;8.246;2023-02-21T12:55:03;12.55;;;5.07;;
60714;SDS011;46564;53.096;8.246;2023-02-21T13:00:29;17.17;;;6.50;;
60714;SDS011;46564;53.096;8.246;2023-02-21T13:05:37;12.55;;;6.25;;
60714;SDS011;46564;53.096;8.246;2023-02-21T13:10:49;14.27;;;5.83;;
60714;SDS011;46564;53.096;8.246;2023-02-21T13:16:01;11.75;;;4.85;;
60714;SDS011;46564;53.096;8.246;2023-02-21T13:21:10;12.82;;;4.90;;
60714;SDS011;46564;53.096;8.246;2023-02-21T13:27:08;11.23;;;4.57;;
60714;SDS011;46564;53.096;8.246;2023-02-21T13:32:16;9.57;;;4.18;;
60714;SDS011;46564;53.096;8.246;2023-02-21T13:37:24;11.68;;;5.18;;
60714;SDS011;46564;53.096;8.246;2023-02-21T13:42:28;10.90;;;4.70;;
60714;SDS011;46564;53.096;8.246;2023-02-21T13:48:08;8.38;;;4.00;;
60714;SDS011;46564;53.096;8.246;2023-02-21T13:53:16;17.70;;;4.35;;
60714;SDS011;46564;53.096;8.246;2023-02-21T14:08:28;14.82;;;4.88;;
60714;SDS011;46564;53.096;8.246;2023-02-21T14:13:39;11.60;;;4.70;;
60714;SDS011;46564;53.096;8.246;2023-02-21T14:18:55;11.77;;;5.55;;
60714;SDS011;46564;53.096;8.246;2023-02-21T14:29:15;11.85;;;4.93;;
60714;SDS011;46564;53.096;8.246;2023-02-21T14:34:31;11.30;;;4.68;;
60714;SDS011;46564;53.096;8.246;2023-02-21T14:39:37;14.63;;;5.35;;
60714;SDS011;46564;53.096;8.246;2023-02-21T14:50:22;8.73;;;4.18;;
60714;SDS011;46564;53.096;8.246;2023-02-21T15:06:06;10.40;;;3.85;;
60714;SDS011;46564;53.096;8.246;2023-02-21T15:11:23;11.10;;;4.80;;
60714;SDS011;46564;53.096;8.246;2023-02-21T15:16:29;8.98;;;4.50;;
60714;SDS011;46564;53.096;8.246;2023-02-21T15:21:32;16.88;;;5.88;;
60714;SDS011;46564;53.096;8.246;2023-02-21T15:26:33;10.32;;;4.75;;
60714;SDS011;46564;53.096;8.246;2023-02-21T15:31:35;17.67;;;6.07;;
60714;SDS011;46564;53.096;8.246;2023-02-21T15:36:41;11.48;;;5.05;;
60714;SDS011;46564;53.096;8.246;2023-02-21T15:41:43;11.50;;;5.57;;
60714;SDS011;46564;53.096;8.246;2023-02-21T15:46:49;12.85;;;5.28;;
60714;SDS011;46564;53.096;8.246;2023-02-21T15:52:02;19.58;;;6.15;;
60714;SDS011;46564;53.096;8.246;2023-02-21T15:57:16;14.75;;;5.82;;
60714;SDS011;46564;53.096;8.246;2023-02-21T16:02:24;17.67;;;6.13;;
60714;SDS011;46564;53.096;8.246;2023-02-21T16:07:33;13.35;;;6.22;;
60714;SDS011;46564;53.096;8.246;2023-02-21T16:12:38;11.95;;;5.57;;
60714;SDS011;46564;53.096;8.246;2023-02-21T16:17:44;9.40;;;4.57;;
60714;SDS011;46564;53.096;8.246;2023-02-21T16:23:20;15.27;;;5.45;;
60714;SDS011;46564;53.096;8.246;2023-02-21T16:28:25;9.88;;;4.90;;
60714;SDS011;46564;53.096;8.246;2023-02-21T16:33:27;9.38;;;4.95;;
60714;SDS011;46564;53.096;8.246;2023-02-21T16:38:29;10.68;;;4.65;;
60714;SDS011;46564;53.096;8.246;2023-02-21T16:43:31;12.63;;;4.63;;
60714;SDS011;46564;53.096;8.246;2023-02-21T16:48:32;9.77;;;4.55;;
60714;SDS011;46564;53.096;8.246;2023-02-21T16:53:35;13.07;;;4.88;;
60714;SDS011;46564;53.096;8.246;2023-02-21T16:58:37;9.90;;;4.60;;
60714;SDS011;46564;53.096;8.246;2023-02-21T17:03:42;12.50;;;5.10;;
60714;SDS011;46564;53.096;8.246;2023-02-21T17:08:43;9.77;;;5.30;;
60714;SDS011;46564;53.096;8.246;2023-02-21T17:13:45;10.85;;;5.05;;
60714;SDS011;46564;53.096;8.246;2023-02-21T17:18:47;12.90;;;4.40;;
60714;SDS011;46564;53.096;8.246;2023-02-21T17:23:48;9.93;;;4.82;;
60714;SDS011;46564;53.096;8.246;2023-02-21T17:28:50;9.50;;;4.47;;
60714;SDS011;46564;53.096;8.246;2023-02-21T17:33:52;10.55;;;4.82;;
60714;SDS011;46564;53.096;8.246;2023-02-21T17:38:55;10.65;;;5.90;;
60714;SDS011;46564;53.096;8.246;2023-02-21T17:43:59;11.48;;;5.30;;
60714;SDS011;46564;53.096;8.246;2023-02-21T17:49:00;13.10;;;4.95;;
60714;SDS011;46564;53.096;8.246;2023-02-21T17:54:02;10.70;;;4.82;;
60714;SDS011;46564;53.096;8.246;2023-02-21T17:59:04;11.15;;;4.80;;
60714;SDS011;46564;53.096;8.246;2023-02-21T18:04:06;11.68;;;5.38;;
60714;SDS011;46564;53.096;8.246;2023-02-21T18:09:08;13.38;;;5.63;;
60714;SDS011;46564;53.096;8.246;2023-02-21T18:14:11;10.93;;;4.72;;
60714;SDS011;46564;53.096;8.246;2023-02-21T18:19:15;10.43;;;5.50;;
60714;SDS011;46564;53.096;8.246;2023-02-21T18:24:17;11.18;;;5.10;;
60714;SDS011;46564;53.096;8.246;2023-02-21T18:29:23;9.02;;;4.93;;
60714;SDS011;46564;53.096;8.246;2023-02-21T18:34:24;10.75;;;4.03;;
60714;SDS011;46564;53.096;8.246;2023-02-21T18:39:26;11.43;;;4.35;;
60714;SDS011;46564;53.096;8.246;2023-02-21T18:44:27;12.82;;;5.43;;
60714;SDS011;46564;53.096;8.246;2023-02-21T18:49:31;14.57;;;5.85;;
60714;SDS011;46564;53.096;8.246;2023-02-21T18:54:42;11.68;;;4.78;;
60714;SDS011;46564;53.096;8.246;2023-02-21T18:59:45;8.60;;;4.25;;
60714;SDS011;46564;53.096;8.246;2023-02-21T19:04:46;14.20;;;5.65;;
60714;SDS011;46564;53.096;8.246;2023-02-21T19:09:48;10.73;;;4.53;;
60714;SDS011;46564;53.096;8.246;2023-02-21T19:14:50;11.73;;;4.47;;
60714;SDS011;46564;53.096;8.246;2023-02-21T19:19:52;14.75;;;5.55;;
60714;SDS011;46564;53.096;8.246;2023-02-21T19:24:54;13.65;;;5.95;;
60714;SDS011;46564;53.096;8.246;2023-02-21T19:29:55;9.23;;;4.40;;
60714;SDS011;46564;53.096;8.246;2023-02-21T19:34:57;11.60;;;5.00;;
60714;SDS011;46564;53.096;8.246;2023-02-21T19:39:59;13.02;;;5.03;;
60714;SDS011;46564;53.096;8.246;2023-02-21T19:45:01;15.32;;;5.70;;
60714;SDS011;46564;53.096;8.246;2023-02-21T19:50:02;12.50;;;5.40;;
60714;SDS011;46564;53.096;8.246;2023-02-21T19:55:04;12.27;;;4.65;;
60714;SDS011;46564;53.096;8.246;2023-02-21T20:00:07;13.63;;;5.68;;
60714;SDS011;46564;53.096;8.246;2023-02-21T20:05:12;11.70;;;4.28;;
60714;SDS011;46564;53.096;8.246;2023-02-21T20:10:14;13.38;;;5.28;;
60714;SDS011;46564;53.096;8.246;2023-02-21T20:15:19;15.60;;;6.72;;
60714;SDS011;46564;53.096;8.246;2023-02-21T20:20:21;14.98;;;5.90;;
60714;SDS011;46564;53.096;8.246;2023-02-21T20:25:23;12.70;;;5.82;;
60714;SDS011;46564;53.096;8.246;2023-02-21T20:30:24;11.38;;;5.25;;
60714;SDS011;46564;53.096;8.246;2023-02-21T20:35:26;11.60;;;4.90;;
60714;SDS011;46564;53.096;8.246;2023-02-21T20:40:30;14.13;;;6.10;;
60714;SDS011;46564;53.096;8.246;2023-02-21T20:45:32;11.93;;;5.20;;
60714;SDS011;46564;53.096;8.246;2023-02-21T20:50:34;15.10;;;6.07;;
60714;SDS011;46564;53.096;8.246;2023-02-21T20:55:35;12.50;;;5.07;;
60714;SDS011;46564;53.096;8.246;2023-02-21T21:00:40;17.65;;;6.43;;
60714;SDS011;46564;53.096;8.246;2023-02-21T21:05:43;14.00;;;5.35;;
60714;SDS011;46564;53.096;8.246;2023-02-21T21:10:44;12.85;;;5.13;;
60714;SDS011;46564;53.096;8.246;2023-02-21T21:15:49;14.38;;;6.47;;
60714;SDS011;46564;53.096;8.246;2023-02-21T21:20:50;16.30;;;6.50;;
60714;SDS011;46564;53.096;8.246;2023-02-21T21:25:52;11.25;;;4.50;;
60714;SDS011;46564;53.096;8.246;2023-02-21T21:30:54;14.20;;;5.72;;
60714;SDS011;46564;53.096;8.246;2023-02-21T21:35:55;14.68;;;5.95;;
60714;SDS011;46564;53.096;8.246;2023-02-21T21:41:00;14.10;;;5.75;;
60714;SDS011;46564;53.096;8.246;2023-02-21T21:46:07;11.75;;;4.75;;
60714;SDS011;46564;53.096;8.246;2023-02-21T21:51:13;14.65;;;5.30;;
60714;SDS011;46564;53.096;8.246;2023-02-21T21:56:15;13.80;;;5.65;;
60714;SDS011;46564;53.096;8.246;2023-02-21T22:01:23;15.15;;;5.85;;
60714;SDS011;46564;53.096;8.246;2023-02-21T22:06:26;18.05;;;5.85;;
60714;SDS011;46564;53.096;8.246;2023-02-21T22:11:28;15.25;;;5.75;;
60714;SDS011;46564;53.096;8.246;2023-02-21T22:16:33;16.77;;;4.68;;
60714;SDS011;46564;53.096;8.246;2023-02-21T22:21:38;12.13;;;5.50;;
60714;SDS011;46564;53.096;8.246;2023-02-21T22:26:41;10.05;;;4.30;;
60714;SDS011;46564;53.096;8.246;2023-02-21T22:31:45;12.85;;;5.13;;
60714;SDS011;46564;53.096;8.246;2023-02-21T22:36:48;15.15;;;6.03;;
60714;SDS011;46564;53.096;8.246;2023-02-21T22:41:51;14.43;;;6.13;;
60714;SDS011;46564;53.096;8.246;2023-02-21T22:46:52;11.48;;;4.20;;
60714;SDS011;46564;53.096;8.246;2023-02-21T22:52:04;10.27;;;4.45;;
60714;SDS011;46564;53.096;8.246;2023-02-21T22:57:05;12.50;;;5.00;;
60714;SDS011;46564;53.096;8.246;2023-02-21T23:02:07;8.07;;;3.83;;
60714;SDS011;46564;53.096;8.246;2023-02-21T23:07:09;11.02;;;5.22;;
60714;SDS011;46564;53.096;8.246;2023-02-21T23:12:10;11.25;;;4.25;;
60714;SDS011;46564;53.096;8.246;2023-02-21T23:17:15;17.33;;;4.72;;
60714;SDS011;46564;53.096;8.246;2023-02-21T23:22:16;13.25;;;5.60;;
60714;SDS011;46564;53.096;8.246;2023-02-21T23:27:18;13.32;;;5.60;;
60714;SDS011;46564;53.096;8.246;2023-02-21T23:32:21;13.43;;;4.70;;
60714;SDS011;46564;53.096;8.246;2023-02-21T23:37:22;13.45;;;5.47;;
60714;SDS011;46564;53.096;8.246;2023-02-21T23:42:24;12.63;;;4.82;;
60714;SDS011;46564;53.096;8.246;2023-02-21T23:47:26;12.52;;;5.13;;
60714;SDS011;46564;53.096;8.246;2023-02-21T23:52:27;13.95;;;5.07;;
60714;SDS011;46564;53.096;8.246;2023-02-21T23:57:29;11.88;;;4.88;;
